In Rescue
 
Open Full Screen Window  High Contrast Mode
Wind Gusting 00 knots
05
November 29, 2022 7:40 AM CST
Weather Information
Wind Direction
  320 °
Wind Speed
  05 kt (6 mph)
Wind Gust
  00 kt (0 mph)
Altimeter
29.72 in
Visibility
1 SM
Temperature
-03° C
27° F
Dewpoint
-05° C
23° F
Humidity
86%
1hr Rain Fall
00.00 in.
24hr Rain Fall
00.00 in.
Sky Condition
Overcast @ 1,400 ft
Scattered @ 600 ft
IFR

METAR KMGG 291340Z AUTO 32005KT 1SM SCT006 OVC014 M03/M05 A2972 RMK AO2 T10311048 PWINO

FAA Disclaimer: The data displayed is for advisory purposes only and is not to be used for flight planning or operations.